Harfang Two — CRA2079 — position and weather

sailwx.info

Track history (hours):
 
Tides and Currents Weather Stations Pressure Air Temp Water Temp Dewpoint Dewpoint Depression Visibility Wind Speed Wind Dir Waves Ship Positions

Harfang Two

Last reported at 2014-Sep-14 23:24 UTC. Time now 2014-Sep-22 16:20 UTC.
Position N 38°42' W 009°10'.

Length 14 m.

Type: Sailing vessel. MMSI: 263848990.

Date/timePositionNaut miles runAvg speedWind from/ knotsBaromVisibWave heightAir tempDewpointWater temp
2014-Sep-14 23:24N 38°42' W 009°10'1 0.8
2014-Sep-14 22:33N 38°42' W 009°09'1 0.1
2014-Sep-14 17:13N 38°42' W 009°10'2 2.7
2014-Sep-14 16:33N 38°42' W 009°08'4 2.8
2014-Sep-14 15:05N 38°41' W 009°03'3 5.8
2014-Sep-14 14:33N 38°41' W 009°06'5 4.3
2014-Sep-14 13:29N 38°42' W 009°12'0 0.2
2014-Sep-14 11:14N 38°41' W 009°13'2 2.8
2014-Sep-14 10:33N 38°42' W 009°10'  
2014-Sep-11 17:33N 38°42' W 009°10'2 1.9
2014-Sep-11 16:31N 38°42' W 009°12'1 0.1
2014-Sep-11 10:32N 38°42' W 009°11'1 0.1
2014-Sep-10 19:33N 38°42' W 009°10'0 0.1
2014-Sep-10 16:34N 38°42' W 009°09'0 0.0
2014-Sep-09 19:33N 38°42' W 009°10'0 0.2
2014-Sep-09 18:33N 38°42' W 009°10'0 0.1
2014-Sep-09 17:33N 38°42' W 009°10'1 0.8
2014-Sep-09 16:30N 38°42' W 009°11'1 0.4
2014-Sep-09 13:05N 38°41' W 009°13'3 5.1
2014-Sep-09 12:33N 38°42' W 009°09'1 0.0
2014-Sep-07 15:24N 38°42' W 009°10'1 1.3
2014-Sep-07 14:34N 38°42' W 009°11'2 2.0
2014-Sep-07 13:33N 38°42' W 009°09'2 1.2
2014-Sep-07 11:26N 38°42' W 009°12'2 1.9
2014-Sep-07 10:33N 38°42' W 009°10'0 0.0
2014-Sep-06 18:33N 38°42' W 009°11'0 0.3
2014-Sep-06 17:33N 38°42' W 009°10'  
Track history (hours):
 
Tides and Currents Weather Stations Pressure Air Temp Water Temp Dewpoint Dewpoint Depression Visibility Wind Speed Wind Dir Waves Ship Positions

Harfang Two

Last reported at 2014-Sep-14 23:24 UTC. Time now 2014-Sep-22 16:20 UTC.
Position N 38°42' W 009°10'.

Length 14 m.

Type: Sailing vessel. MMSI: 263848990.

Date/timePositionNaut miles runAvg speedWind from/ knotsBaromVisibWave heightAir tempDewpointWater temp
2014-Sep-14 23:24N 38°42' W 009°10'1 0.8
2014-Sep-14 22:33N 38°42' W 009°09'1 0.1
2014-Sep-14 17:13N 38°42' W 009°10'2 2.7
2014-Sep-14 16:33N 38°42' W 009°08'4 2.8
2014-Sep-14 15:05N 38°41' W 009°03'3 5.8
2014-Sep-14 14:33N 38°41' W 009°06'5 4.3
2014-Sep-14 13:29N 38°42' W 009°12'0 0.2
2014-Sep-14 11:14N 38°41' W 009°13'2 2.8
2014-Sep-14 10:33N 38°42' W 009°10'  
2014-Sep-11 17:33N 38°42' W 009°10'2 1.9
2014-Sep-11 16:31N 38°42' W 009°12'1 0.1
2014-Sep-11 10:32N 38°42' W 009°11'1 0.1
2014-Sep-10 19:33N 38°42' W 009°10'0 0.1
2014-Sep-10 16:34N 38°42' W 009°09'0 0.0
2014-Sep-09 19:33N 38°42' W 009°10'0 0.2
2014-Sep-09 18:33N 38°42' W 009°10'0 0.1
2014-Sep-09 17:33N 38°42' W 009°10'1 0.8
2014-Sep-09 16:30N 38°42' W 009°11'1 0.4
2014-Sep-09 13:05N 38°41' W 009°13'3 5.1
2014-Sep-09 12:33N 38°42' W 009°09'1 0.0
2014-Sep-07 15:24N 38°42' W 009°10'1 1.3
2014-Sep-07 14:34N 38°42' W 009°11'2 2.0
2014-Sep-07 13:33N 38°42' W 009°09'2 1.2
2014-Sep-07 11:26N 38°42' W 009°12'2 1.9
2014-Sep-07 10:33N 38°42' W 009°10'0 0.0
2014-Sep-06 18:33N 38°42' W 009°11'0 0.3
2014-Sep-06 17:33N 38°42' W 009°10'  

Dump ship's entire track history